Time,TemperatureF,DewpointF,PressureIn,WindDirection,WindDirectionDegrees,WindSpeedMPH,WindSpeedGustMPH,Humidity,HourlyPrecipIn,Conditions,Clouds,dailyrainin,SoftwareType,DateUTC
2013-05-12 11:00:00,56.3,26.0,30.27,WNW,284,1.0,1.0,31,0.00,,,0.00,Wunderground v.1.15,2013-05-12 16:00:00,
2013-05-12 11:05:00,57.1,30.4,30.27,West,266,0.0,1.0,36,0.00,,,0.00,Wunderground v.1.15,2013-05-12 16:05:00,
2013-05-12 11:10:00,57.8,26.5,30.26,West,269,0.0,0.0,30,0.00,,,0.00,Wunderground v.1.15,2013-05-12 16:10:00,
2013-05-12 11:15:00,57.7,28.0,30.26,SSW,212,0.0,1.0,32,0.00,,,0.00,Wunderground v.1.15,2013-05-12 16:15:00,
2013-05-12 11:20:00,57.4,29.2,30.26,SSW,194,1.0,1.0,34,0.00,,,0.00,Wunderground v.1.15,2013-05-12 16:20:00,
2013-05-12 11:25:00,57.2,27.6,30.26,West,272,1.0,1.0,32,0.00,,,0.00,Wunderground v.1.15,2013-05-12 16:25:00,
2013-05-12 11:30:00,57.6,26.4,30.26,West,276,1.0,1.0,30,0.00,,,0.00,Wunderground v.1.15,2013-05-12 16:30:00,
2013-05-12 11:35:00,58.6,27.2,30.26,WNW,286,0.0,3.0,30,0.00,,,0.00,Wunderground v.1.15,2013-05-12 16:35:00,
2013-05-12 11:45:00,58.9,29.1,30.26,WNW,286,0.0,3.0,32,0.00,,,0.00,Wunderground v.1.15,2013-05-12 16:45:00,
2013-05-12 11:50:00,59.3,29.4,30.26,West,278,0.0,3.0,32,0.00,,,0.00,Wunderground v.1.15,2013-05-12 16:50:00,
2013-05-12 11:55:00,59.4,27.9,30.25,WNW,287,0.0,3.0,30,0.00,,,0.00,Wunderground v.1.15,2013-05-12 16:55:00,
2013-05-12 12:05:00,59.2,28.5,30.25,ESE,105,1.0,3.0,31,0.00,,,0.00,Wunderground v.1.15,2013-05-12 17:05:00,
2013-05-12 12:10:00,59.5,26.3,30.25,SE,124,1.0,1.0,28,0.00,,,0.00,Wunderground v.1.15,2013-05-12 17:10:00,
2013-05-12 12:15:00,59.5,31.8,30.25,SE,140,1.0,3.0,35,0.00,,,0.00,Wunderground v.1.15,2013-05-12 17:15:00,
2013-05-12 12:20:00,59.7,33.4,30.24,ESE,110,1.0,3.0,37,0.00,,,0.00,Wunderground v.1.15,2013-05-12 17:20:00,
2013-05-12 12:25:00,59.8,30.6,30.24,East,82,1.0,3.0,33,0.00,,,0.00,Wunderground v.1.15,2013-05-12 17:25:00,
2013-05-12 12:30:00,59.5,28.0,30.24,SE,145,2.0,2.0,30,0.00,,,0.00,Wunderground v.1.15,2013-05-12 17:30:00,
2013-05-12 12:40:00,59.8,28.3,30.24,ESE,105,1.0,3.0,30,0.00,,,0.00,Wunderground v.1.15,2013-05-12 17:40:00,
2013-05-12 12:45:00,60.0,29.2,30.23,South,173,1.0,3.0,31,0.00,,,0.00,Wunderground v.1.15,2013-05-12 17:45:00,
2013-05-12 12:50:00,60.5,34.7,30.23,East,96,1.0,3.0,38,0.00,,,0.00,Wunderground v.1.15,2013-05-12 17:50:00,
2013-05-12 12:55:00,60.7,28.2,30.23,SE,133,1.0,3.0,29,0.00,,,0.00,Wunderground v.1.15,2013-05-12 17:55:00,
2013-05-12 13:00:00,61.7,28.2,30.23,ESE,105,1.0,3.0,28,0.00,,,0.00,Wunderground v.1.15,2013-05-12 18:00:00,
2013-05-12 13:05:00,61.7,31.5,30.23,SSE,152,1.0,3.0,32,0.00,,,0.00,Wunderground v.1.15,2013-05-12 18:05:00,
2013-05-12 13:10:00,61.4,28.0,30.23,ESE,105,1.0,3.0,28,0.00,,,0.00,Wunderground v.1.15,2013-05-12 18:10:00,
2013-05-12 13:20:00,61.3,27.0,30.22,East,91,1.0,3.0,27,0.00,,,0.00,Wunderground v.1.15,2013-05-12 18:20:00,
2013-05-12 13:25:00,61.4,32.0,30.22,ESE,103,1.0,3.0,33,0.00,,,0.00,Wunderground v.1.15,2013-05-12 18:25:00,
2013-05-12 13:30:00,62.3,27.9,30.22,ENE,60,1.0,1.0,27,0.00,,,0.00,Wunderground v.1.15,2013-05-12 18:30:00,
2013-05-12 13:35:00,62.8,32.5,30.22,ESE,110,0.0,3.0,32,0.00,,,0.00,Wunderground v.1.15,2013-05-12 18:35:00,
2013-05-12 13:40:00,63.4,34.5,30.22,East,101,0.0,3.0,34,0.00,,,0.00,Wunderground v.1.15,2013-05-12 18:40:00,
2013-05-12 13:45:00,64.7,32.5,30.22,SE,125,0.0,3.0,30,0.00,,,0.00,Wunderground v.1.15,2013-05-12 18:45:00,
2013-05-12 13:50:00,64.5,31.5,30.21,ENE,78,1.0,5.0,29,0.00,,,0.00,Wunderground v.1.15,2013-05-12 18:50:00,
2013-05-12 14:00:00,63.4,29.7,30.20,SE,136,1.0,3.0,28,0.00,,,0.00,Wunderground v.1.15,2013-05-12 19:00:00,
2013-05-12 14:05:00,62.4,27.9,30.20,ESE,110,1.0,3.0,27,0.00,,,0.00,Wunderground v.1.15,2013-05-12 19:05:00,
2013-05-12 14:10:00,62.5,27.1,30.20,ESE,107,1.0,1.0,26,0.00,,,0.00,Wunderground v.1.15,2013-05-12 19:10:00,
2013-05-12 14:15:00,62.9,31.0,30.20,West,276,1.0,3.0,30,0.00,,,0.00,Wunderground v.1.15,2013-05-12 19:15:00,
2013-05-12 14:20:00,63.0,31.0,30.20,NW,314,1.0,1.0,30,0.00,,,0.00,Wunderground v.1.15,2013-05-12 19:20:00,
2013-05-12 14:25:00,63.6,33.2,30.20,SSE,163,1.0,3.0,32,0.00,,,0.00,Wunderground v.1.15,2013-05-12 19:25:00,
2013-05-12 14:30:00,63.9,29.2,30.20,SSE,149,1.0,3.0,27,0.00,,,0.00,Wunderground v.1.15,2013-05-12 19:30:00,
2013-05-12 14:40:00,63.5,28.0,30.19,WNW,287,1.0,1.0,26,0.00,,,0.00,Wunderground v.1.15,2013-05-12 19:40:00,
2013-05-12 14:45:00,63.8,29.1,30.19,SW,231,1.0,3.0,27,0.00,,,0.00,Wunderground v.1.15,2013-05-12 19:45:00,
2013-05-12 14:50:00,64.9,28.2,30.19,West,269,1.0,1.0,25,0.00,,,0.00,Wunderground v.1.15,2013-05-12 19:50:00,
2013-05-12 14:55:00,65.4,30.5,30.18,South,176,1.0,3.0,27,0.00,,,0.00,Wunderground v.1.15,2013-05-12 19:55:00,
2013-05-12 15:00:00,65.9,34.4,30.18,West,278,1.0,1.0,31,0.00,,,0.00,Wunderground v.1.15,2013-05-12 20:00:00,
2013-05-12 15:05:00,66.5,32.4,30.18,SE,125,1.0,2.0,28,0.00,,,0.00,Wunderground v.1.15,2013-05-12 20:05:00,
2013-05-12 15:15:00,65.9,33.6,30.18,SE,125,1.0,3.0,30,0.00,,,0.00,Wunderground v.1.15,2013-05-12 20:15:00,
2013-05-12 15:20:00,65.8,29.9,30.18,East,99,1.0,3.0,26,0.00,,,0.00,Wunderground v.1.15,2013-05-12 20:20:00,
2013-05-12 15:30:00,65.9,30.9,30.17,WNW,287,1.0,1.0,27,0.00,,,0.00,Wunderground v.1.15,2013-05-12 20:30:00,
2013-05-12 15:35:00,67.5,35.8,30.17,NE,37,0.0,3.0,31,0.00,,,0.00,Wunderground v.1.15,2013-05-12 20:35:00,
2013-05-12 15:40:00,68.2,33.8,30.17,West,269,0.0,3.0,28,0.00,,,0.00,Wunderground v.1.15,2013-05-12 20:40:00,
2013-05-12 15:45:00,68.5,33.2,30.17,SW,215,0.0,3.0,27,0.00,,,0.00,Wunderground v.1.15,2013-05-12 20:45:00,
2013-05-12 15:55:00,69.4,33.0,30.16,ENE,65,0.0,3.0,26,0.00,,,0.00,Wunderground v.1.15,2013-05-12 20:55:00,
2013-05-12 16:00:00,69.3,32.9,30.16,West,278,0.0,3.0,26,0.00,,,0.00,Wunderground v.1.15,2013-05-12 21:00:00,
2013-05-12 16:05:00,68.0,34.5,30.15,East,101,1.0,3.0,29,0.00,,,0.00,Wunderground v.1.15,2013-05-12 21:05:00,
2013-05-12 16:10:00,67.8,32.6,30.15,East,98,1.0,1.0,27,0.00,,,0.00,Wunderground v.1.15,2013-05-12 21:10:00,
2013-05-12 16:15:00,68.8,33.4,30.15,WNW,292,0.0,3.0,27,0.00,,,0.00,Wunderground v.1.15,2013-05-12 21:15:00,
2013-05-12 16:20:00,68.9,32.6,30.15,ESE,107,0.0,3.0,26,0.00,,,0.00,Wunderground v.1.15,2013-05-12 21:20:00,
2013-05-12 16:25:00,69.6,34.1,30.15,East,80,0.0,3.0,27,0.00,,,0.00,Wunderground v.1.15,2013-05-12 21:25:00,
2013-05-12 16:35:00,68.4,34.0,30.15,East,86,0.0,3.0,28,0.00,,,0.00,Wunderground v.1.15,2013-05-12 21:35:00,
2013-05-12 16:40:00,68.3,33.9,30.15,SE,125,1.0,3.0,28,0.00,,,0.00,Wunderground v.1.15,2013-05-12 21:40:00,
2013-05-12 16:45:00,68.3,32.1,30.15,SSW,195,1.0,3.0,26,0.00,,,0.00,Wunderground v.1.15,2013-05-12 21:45:00,
2013-05-12 16:50:00,67.6,30.5,30.15,SSW,200,1.0,3.0,25,0.00,,,0.00,Wunderground v.1.15,2013-05-12 21:50:00,
2013-05-12 16:55:00,66.8,32.6,30.15,East,99,2.0,3.0,28,0.00,,,0.00,Wunderground v.1.15,2013-05-12 21:55:00,
2013-05-12 17:00:00,67.6,30.5,30.15,SSW,212,1.0,3.0,25,0.00,,,0.00,Wunderground v.1.15,2013-05-12 22:00:00,
2013-05-12 17:05:00,67.7,30.6,30.15,SE,125,1.0,3.0,25,0.00,,,0.00,Wunderground v.1.15,2013-05-12 22:05:00,
2013-05-12 17:10:00,67.3,27.1,30.14,West,271,1.0,3.0,22,0.00,,,0.00,Wunderground v.1.15,2013-05-12 22:10:00,
2013-05-12 17:20:00,67.1,30.1,30.14,North,353,1.0,3.0,25,0.00,,,0.00,Wunderground v.1.15,2013-05-12 22:20:00,
2013-05-12 17:25:00,68.3,33.0,30.14,ESE,104,0.0,3.0,27,0.00,,,0.00,Wunderground v.1.15,2013-05-12 22:25:00,
2013-05-12 17:30:00,68.5,28.1,30.14,West,262,1.0,3.0,22,0.00,,,0.00,Wunderground v.1.15,2013-05-12 22:30:00,
2013-05-12 17:35:00,69.0,29.6,30.14,ESE,115,1.0,3.0,23,0.00,,,0.00,Wunderground v.1.15,2013-05-12 22:35:00,
2013-05-12 17:40:00,69.3,31.9,30.14,East,79,1.0,3.0,25,0.00,,,0.00,Wunderground v.1.15,2013-05-12 22:40:00,
2013-05-12 17:45:00,69.2,28.7,30.14,WSW,255,1.0,3.0,22,0.00,,,0.00,Wunderground v.1.15,2013-05-12 22:45:00,
2013-05-12 17:50:00,69.1,28.6,30.14,WNW,283,1.0,3.0,22,0.00,,,0.00,Wunderground v.1.15,2013-05-12 22:50:00,
2013-05-12 18:00:00,68.7,27.2,30.13,East,87,1.0,1.0,21,0.00,,,0.00,Wunderground v.1.15,2013-05-12 23:00:00,
2013-05-12 18:05:00,69.0,30.7,30.13,East,91,0.0,3.0,24,0.00,,,0.00,Wunderground v.1.15,2013-05-12 23:05:00,
2013-05-12 18:10:00,69.9,32.5,30.13,East,98,0.0,3.0,25,0.00,,,0.00,Wunderground v.1.15,2013-05-12 23:10:00,
2013-05-12 18:15:00,69.6,30.1,30.13,NE,34,0.0,3.0,23,0.00,,,0.00,Wunderground v.1.15,2013-05-12 23:15:00,
2013-05-12 18:20:00,69.7,30.2,30.13,NNW,335,0.0,3.0,23,0.00,,,0.00,Wunderground v.1.15,2013-05-12 23:20:00,
2013-05-12 18:25:00,69.2,30.8,30.12,NNW,337,0.0,3.0,24,0.00,,,0.00,Wunderground v.1.15,2013-05-12 23:25:00,
2013-05-12 18:30:00,69.2,27.6,30.12,East,99,0.0,3.0,21,0.00,,,0.00,Wunderground v.1.15,2013-05-12 23:30:00,
2013-05-12 18:40:00,68.5,28.1,30.12,East,96,0.0,3.0,22,0.00,,,0.00,Wunderground v.1.15,2013-05-12 23:40:00,
2013-05-12 18:45:00,68.5,31.3,30.12,East,96,0.0,3.0,25,0.00,,,0.00,Wunderground v.1.15,2013-05-12 23:45:00,
2013-05-12 18:50:00,69.0,29.6,30.12,East,96,0.0,3.0,23,0.00,,,0.00,Wunderground v.1.15,2013-05-12 23:50:00,
2013-05-12 18:55:00,69.5,31.1,30.11,SE,139,0.0,3.0,24,0.00,,,0.00,Wunderground v.1.15,2013-05-12 23:55:00,
2013-05-12 19:00:00,68.5,27.0,30.11,West,264,0.0,3.0,21,0.00,,,0.00,Wunderground v.1.15,2013-05-13 00:00:00,
2013-05-12 19:05:00,67.7,31.6,30.11,West,264,0.0,3.0,26,0.00,,,0.00,Wunderground v.1.15,2013-05-13 00:05:00,
2013-05-12 19:15:00,67.3,30.2,30.11,West,259,0.0,3.0,25,0.00,,,0.00,Wunderground v.1.15,2013-05-13 00:15:00,
2013-05-12 19:20:00,66.7,28.7,30.11,ESE,107,0.0,3.0,24,0.00,,,0.00,Wunderground v.1.15,2013-05-13 00:20:00,
2013-05-12 19:25:00,66.4,28.5,30.11,ESE,113,0.0,3.0,24,0.00,,,0.00,Wunderground v.1.15,2013-05-13 00:25:00,
2013-05-12 19:30:00,65.8,26.9,30.10,SE,128,0.0,3.0,23,0.00,,,0.00,Wunderground v.1.15,2013-05-13 00:30:00,
2013-05-12 19:35:00,65.5,29.7,30.10,ESE,118,0.0,3.0,26,0.00,,,0.00,Wunderground v.1.15,2013-05-13 00:35:00,
2013-05-12 19:40:00,65.0,31.1,30.10,East,96,0.0,3.0,28,0.00,,,0.00,Wunderground v.1.15,2013-05-13 00:40:00,
2013-05-12 19:45:00,64.7,29.0,30.10,SE,131,0.0,3.0,26,0.00,,,0.00,Wunderground v.1.15,2013-05-13 00:45:00,
2013-05-12 19:55:00,64.1,29.4,30.10,SE,131,0.0,3.0,27,0.00,,,0.00,Wunderground v.1.15,2013-05-13 00:55:00,
2013-05-12 20:00:00,64.0,28.4,30.10,SE,131,0.0,3.0,26,0.00,,,0.00,Wunderground v.1.15,2013-05-13 01:00:00,
2013-05-12 20:05:00,63.6,28.1,30.10,SE,131,0.0,3.0,26,0.00,,,0.00,Wunderground v.1.15,2013-05-13 01:05:00,
2013-05-12 20:10:00,63.3,27.8,30.10,SE,131,0.0,3.0,26,0.00,,,0.00,Wunderground v.1.15,2013-05-13 01:10:00,
2013-05-12 20:15:00,62.9,28.4,30.10,SE,131,0.0,3.0,27,0.00,,,0.00,Wunderground v.1.15,2013-05-13 01:15:00,
2013-05-12 20:20:00,62.5,28.9,30.10,SE,131,0.0,3.0,28,0.00,,,0.00,Wunderground v.1.15,2013-05-13 01:20:00,
2013-05-12 20:25:00,62.2,28.7,30.10,SE,131,0.0,3.0,28,0.00,,,0.00,Wunderground v.1.15,2013-05-13 01:25:00,
2013-05-12 20:35:00,61.4,29.7,30.10,SE,131,0.0,3.0,30,0.00,,,0.00,Wunderground v.1.15,2013-05-13 01:35:00,
2013-05-12 20:40:00,61.0,28.5,30.10,SE,131,0.0,3.0,29,0.00,,,0.00,Wunderground v.1.15,2013-05-13 01:40:00,
2013-05-12 20:45:00,60.7,29.1,30.10,SE,131,0.0,3.0,30,0.00,,,0.00,Wunderground v.1.15,2013-05-13 01:45:00,
2013-05-12 20:50:00,60.4,29.6,30.10,SE,131,0.0,3.0,31,0.00,,,0.00,Wunderground v.1.15,2013-05-13 01:50:00,
2013-05-12 20:55:00,60.1,30.1,30.10,SE,131,0.0,3.0,32,0.00,,,0.00,Wunderground v.1.15,2013-05-13 01:55:00,
2013-05-12 21:00:00,59.7,30.5,30.10,SE,131,0.0,3.0,33,0.00,,,0.00,Wunderground v.1.15,2013-05-13 02:00:00,
2013-05-12 21:05:00,59.3,30.2,30.11,SE,131,0.0,3.0,33,0.00,,,0.00,Wunderground v.1.15,2013-05-13 02:05:00,
2013-05-12 21:10:00,58.9,30.6,30.11,SE,131,0.0,3.0,34,0.00,,,0.00,Wunderground v.1.15,2013-05-13 02:10:00,
2013-05-12 21:20:00,58.6,31.0,30.11,SE,139,0.0,3.0,35,0.00,,,0.00,Wunderground v.1.15,2013-05-13 02:20:00,
2013-05-12 21:25:00,58.3,30.7,30.11,SE,139,0.0,3.0,35,0.00,,,0.00,Wunderground v.1.15,2013-05-13 02:25:00,
2013-05-12 21:30:00,57.9,31.1,30.11,SE,139,0.0,3.0,36,0.00,,,0.00,Wunderground v.1.15,2013-05-13 02:30:00,
2013-05-12 21:35:00,57.8,31.7,30.11,SE,139,0.0,3.0,37,0.00,,,0.00,Wunderground v.1.15,2013-05-13 02:35:00,
2013-05-12 21:40:00,57.6,30.8,30.11,SE,139,0.0,3.0,36,0.00,,,0.00,Wunderground v.1.15,2013-05-13 02:40:00,
2013-05-12 21:45:00,57.4,31.3,30.11,SE,139,0.0,3.0,37,0.00,,,0.00,Wunderground v.1.15,2013-05-13 02:45:00,
2013-05-12 21:50:00,57.2,31.8,30.11,SE,126,0.0,3.0,38,0.00,,,0.00,Wunderground v.1.15,2013-05-13 02:50:00,
2013-05-12 22:00:00,56.9,32.2,30.11,SE,126,0.0,3.0,39,0.00,,,0.00,Wunderground v.1.15,2013-05-13 03:00:00,
2013-05-12 22:05:00,56.6,31.9,30.11,ESE,107,0.0,3.0,39,0.00,,,0.00,Wunderground v.1.15,2013-05-13 03:05:00,
2013-05-12 22:10:00,56.3,31.6,30.11,SE,128,0.0,3.0,39,0.00,,,0.00,Wunderground v.1.15,2013-05-13 03:10:00,
2013-05-12 22:15:00,56.2,31.5,30.11,SE,128,0.0,3.0,39,0.00,,,0.00,Wunderground v.1.15,2013-05-13 03:15:00,
2013-05-12 22:20:00,55.9,31.9,30.11,SE,128,0.0,3.0,40,0.00,,,0.00,Wunderground v.1.15,2013-05-13 03:20:00,
2013-05-12 22:25:00,55.8,31.8,30.11,SE,130,0.0,3.0,40,0.00,,,0.00,Wunderground v.1.15,2013-05-13 03:25:00,
2013-05-12 22:30:00,55.6,32.2,30.11,SE,130,0.0,3.0,41,0.00,,,0.00,Wunderground v.1.15,2013-05-13 03:30:00,
2013-05-12 22:40:00,55.1,31.8,30.11,SE,130,0.0,3.0,41,0.00,,,0.00,Wunderground v.1.15,2013-05-13 03:40:00,
2013-05-12 22:45:00,54.8,32.1,30.11,SE,130,0.0,3.0,42,0.00,,,0.00,Wunderground v.1.15,2013-05-13 03:45:00,
2013-05-12 22:50:00,54.9,32.2,30.11,SSW,197,0.0,3.0,42,0.00,,,0.00,Wunderground v.1.15,2013-05-13 03:50:00,
2013-05-12 22:55:00,54.9,32.2,30.11,SE,130,0.0,3.0,42,0.00,,,0.00,Wunderground v.1.15,2013-05-13 03:55:00,
2013-05-12 23:00:00,54.9,32.2,30.10,SE,134,0.0,3.0,42,0.00,,,0.00,Wunderground v.1.15,2013-05-13 04:00:00,
2013-05-12 23:05:00,54.8,31.5,30.10,ESE,123,0.0,3.0,41,0.00,,,0.00,Wunderground v.1.15,2013-05-13 04:05:00,
2013-05-12 23:10:00,54.7,31.4,30.10,SE,134,0.0,3.0,41,0.00,,,0.00,Wunderground v.1.15,2013-05-13 04:10:00,
2013-05-12 23:15:00,54.6,31.3,30.10,SE,128,0.0,3.0,41,0.00,,,0.00,Wunderground v.1.15,2013-05-13 04:15:00,
2013-05-12 23:20:00,54.4,31.2,30.10,SE,130,0.0,3.0,41,0.00,,,0.00,Wunderground v.1.15,2013-05-13 04:20:00,
2013-05-12 23:25:00,54.3,31.1,30.10,ESE,115,0.0,3.0,41,0.00,,,0.00,Wunderground v.1.15,2013-05-13 04:25:00,
2013-05-12 23:30:00,54.3,31.1,30.10,SE,136,0.0,3.0,41,0.00,,,0.00,Wunderground v.1.15,2013-05-13 04:30:00,
2013-05-12 23:35:00,54.3,31.1,30.10,SE,139,0.0,3.0,41,0.00,,,0.00,Wunderground v.1.15,2013-05-13 04:35:00,
2013-05-12 23:45:00,54.0,31.4,30.10,SE,141,0.0,3.0,42,0.00,,,0.00,Wunderground v.1.15,2013-05-13 04:45:00,
2013-05-12 23:50:00,53.8,31.2,30.10,SE,134,0.0,3.0,42,0.00,,,0.00,Wunderground v.1.15,2013-05-13 04:50:00,
2013-05-12 23:55:00,53.5,31.5,30.10,SE,134,0.0,3.0,43,0.00,,,0.00,Wunderground v.1.15,2013-05-13 04:55:00,